首页
METAR-TAF:

METAR-TAF

机场 :

迈索尔, 印度

纬度: 12-13-48N, 经度: 76-39-21E, 海拔: 715米

当前天气观测

该预报发布于13小时和57分钟前的12:00 UTC
风速10节,风向西转西南
温度 29°C
湿度 62%
气压 1010 hPa
能见度10公里或以上
散云层高于1200英尺
多云层高于1800英尺

METAR: VOMY 161200Z 24010KT 9999 SCT012 BKN018 29/21 Q1010

时间: 07:27 (01:57 UTC)

预报

该预报发布于2小时和57分钟前的23:00 UTC
预报有效从17日的 00点(UTC)到 17日的 09点(UTC)
风速10节,风向西
能見度: 6000
散云层高于1200英尺
散云层高于8000英尺
短暂存在
从 17日的 00点(UTC)到 17日的 03点(UTC)
能見度: 4000
多云层高于800英尺
散云层高于1200英尺
轻雾,

TAF: VOMY 162300Z 1700/1709 27010KT 6000 SCT012 SCT080 TEMPO 1700/1703 4000 BR BKN008 SCT012

超过4000个机场的气象观测和天气预报(METAR&TAF报告)。

可查询的气象台以黄色和红色小点在地图上表示。

将鼠标移到小点上方,可查看气象台名称。

然后点击查看天气观测和预报。

如需切换地图:点击带黑十字的绿色按钮放大地图;点击带横线的绿色按钮缩小地图;或者点击绿色箭头查看邻近地区的地图。


METAR-TAF: